Time;durP1;ratioP1;P1;durP2;ratioP2;P2;SDS_P1;SDS_P2;PMS_P1;PMS_P2;Temp;Humidity;BMP_temperature;BMP_pressure;BME280_temperature;BME280_humidity;BME280_pressure;Samples;Min_cycle;Max_cycle;Signal;HPM_P1;HPM_P2
2021/11/11 00:00:05;;;;;;;15.98;10.57;;;;;;;9.89;60.72;100626.97;6042181;23;20018;-86
2021/11/11 00:02:32;;;;;;;21.13;10.38;;;;;;;9.83;60.48;100616.69;6067742;23;20023;-86
2021/11/11 00:04:59;;;;;;;20.08;10.98;;;;;;;9.75;60.62;100609.97;6066232;23;20424;-86
2021/11/11 00:07:26;;;;;;;25.30;10.60;;;;;;;9.70;60.95;100604.03;6042491;23;20042;-85
2021/11/11 00:09:53;;;;;;;19.15;11.02;;;;;;;9.64;61.05;100604.25;6065897;23;20027;-86
2021/11/11 00:12:20;;;;;;;21.83;10.32;;;;;;;9.57;60.92;100594.94;6042018;23;20035;-85
2021/11/11 00:14:47;;;;;;;19.23;10.82;;;;;;;9.52;61.26;100601.22;6042548;23;20019;-86
2021/11/11 00:17:13;;;;;;;22.02;10.43;;;;;;;9.47;61.31;100600.56;6042402;23;20027;-85
2021/11/11 00:19:40;;;;;;;18.13;10.25;;;;;;;9.44;61.44;100600.66;6041525;23;20490;-86
2021/11/11 00:22:07;;;;;;;18.25;10.05;;;;;;;9.40;61.41;100596.44;6065252;23;20112;-86
2021/11/11 00:24:34;;;;;;;16.45;10.70;;;;;;;9.39;61.30;100599.97;6067718;23;20030;-85
2021/11/11 00:27:01;;;;;;;17.20;10.55;;;;;;;9.36;61.68;100600.97;6041919;23;20101;-86
2021/11/11 00:29:28;;;;;;;17.13;10.30;;;;;;;9.32;61.68;100599.38;6067245;23;20027;-85
2021/11/11 00:31:54;;;;;;;17.77;11.13;;;;;;;9.29;61.75;100596.84;6067319;23;20038;-85
2021/11/11 00:34:21;;;;;;;20.35;10.68;;;;;;;9.27;61.85;100597.81;6067548;23;20030;-83
2021/11/11 00:36:48;;;;;;;17.67;10.23;;;;;;;9.23;61.90;100591.81;6042341;23;20027;-83
2021/11/11 00:39:14;;;;;;;23.25;11.80;;;;;;;9.22;62.08;100584.84;6041972;23;20026;-85
2021/11/11 00:41:41;;;;;;;18.63;10.80;;;;;;;9.18;62.00;100584.13;6067083;23;20050;-86
2021/11/11 00:44:08;;;;;;;17.90;11.57;;;;;;;9.17;61.95;100573.66;6042412;23;20082;-86
2021/11/11 00:46:34;;;;;;;21.02;12.02;;;;;;;9.14;61.97;100574.66;6042400;23;20351;-85
2021/11/11 00:49:06;;;;;;;19.23;10.77;;;;;;;9.12;62.26;100565.94;6067420;23;20027;-83
2021/11/11 00:51:38;;;;;;;21.98;10.73;;;;;;;9.07;62.39;100574.03;6042390;23;20023;-86
2021/11/11 00:54:06;;;;;;;19.45;11.23;;;;;;;9.05;62.22;100580.25;6042469;23;20027;-86
2021/11/11 00:56:33;;;;;;;23.95;10.43;;;;;;;9.03;62.58;100579.44;6042094;23;20031;-85
2021/11/11 00:59:02;;;;;;;18.77;11.35;;;;;;;9.01;62.26;100578.66;6067058;23;20031;-86
2021/11/11 01:01:29;;;;;;;22.25;11.65;;;;;;;8.97;62.44;100581.38;6067300;23;20451;-84
2021/11/11 01:03:59;;;;;;;21.90;11.40;;;;;;;8.94;62.84;100589.34;6067597;23;20122;-85
2021/11/11 01:06:26;;;;;;;25.45;11.48;;;;;;;8.92;62.69;100582.44;6042133;23;20019;-85
2021/11/11 01:08:54;;;;;;;17.90;10.57;;;;;;;8.90;62.80;100573.78;6066442;23;20038;-85
2021/11/11 01:11:21;;;;;;;23.75;11.85;;;;;;;8.87;62.92;100566.88;6042267;23;20035;-86
2021/11/11 01:14:08;;;;;;;20.38;10.43;;;;;;;8.86;62.77;100559.94;6046274;23;20403;-85
2021/11/11 01:16:35;;;;;;;22.20;11.27;;;;;;;8.82;62.81;100556.53;6042679;23;20023;-85
2021/11/11 01:19:02;;;;;;;26.05;12.30;;;;;;;8.79;62.91;100551.41;6041917;23;20027;-85
2021/11/11 01:21:29;;;;;;;21.83;11.82;;;;;;;8.78;62.61;100554.09;6041957;23;20022;-85
2021/11/11 01:23:56;;;;;;;21.92;11.57;;;;;;;8.76;62.96;100553.28;6067077;23;20031;-85
2021/11/11 01:26:22;;;;;;;16.88;10.88;;;;;;;8.73;63.07;100554.25;6066931;23;20023;-86
2021/11/11 01:28:49;;;;;;;24.52;11.98;;;;;;;8.74;62.99;100561.22;6041742;23;20034;-86
2021/11/11 01:31:16;;;;;;;19.10;11.00;;;;;;;8.73;63.03;100557.75;6041905;23;20054;-85
2021/11/11 01:33:42;;;;;;;20.70;11.10;;;;;;;8.76;63.15;100561.16;6066688;23;20485;-85
2021/11/11 01:36:09;;;;;;;22.48;11.73;;;;;;;8.75;63.15;100562.09;6065596;23;20023;-85
2021/11/11 01:38:36;;;;;;;27.65;11.85;;;;;;;8.77;63.21;100565.50;6041820;23;20336;-85
2021/11/11 01:41:05;;;;;;;23.40;12.40;;;;;;;8.76;63.27;100569.91;6067320;23;20046;-86
2021/11/11 01:43:31;;;;;;;21.95;12.13;;;;;;;8.78;63.14;100561.97;6067178;23;20486;-85
2021/11/11 01:45:59;;;;;;;18.55;10.98;;;;;;;8.77;63.22;100566.34;6066831;23;20030;-86
2021/11/11 01:48:26;;;;;;;22.70;12.20;;;;;;;8.78;63.07;100560.19;6066573;23;20031;-85
2021/11/11 01:50:54;;;;;;;20.08;11.93;;;;;;;8.80;63.22;100561.00;6041847;23;20053;-85
2021/11/11 01:53:22;;;;;;;23.77;12.05;;;;;;;8.81;63.23;100553.97;6041867;23;20027;-86
2021/11/11 01:55:49;;;;;;;25.30;12.20;;;;;;;8.84;62.98;100556.50;6041612;23;20019;-86
2021/11/11 01:58:16;;;;;;;23.77;11.57;;;;;;;8.87;63.03;100556.38;6041338;23;20038;-84
2021/11/11 02:00:52;;;;;;;21.23;11.75;;;;;;;8.88;63.18;100558.09;6041490;23;20034;-86
2021/11/11 02:03:21;;;;;;;24.40;11.32;;;;;;;8.92;62.95;100556.19;6066964;23;20026;-85
2021/11/11 02:05:48;;;;;;;24.85;12.27;;;;;;;8.93;62.76;100553.53;6041851;23;20027;-85
2021/11/11 02:08:16;;;;;;;23.27;11.75;;;;;;;8.96;62.89;100563.06;6066980;23;20035;-85
2021/11/11 02:10:43;;;;;;;19.67;11.38;;;;;;;8.97;62.76;100556.91;6041861;23;20027;-85
2021/11/11 02:13:10;;;;;;;23.95;12.15;;;;;;;8.98;62.65;100559.44;6041984;23;20459;-85
2021/11/11 02:15:38;;;;;;;23.15;12.27;;;;;;;8.99;62.67;100565.56;6042025;23;20034;-85
2021/11/11 02:18:07;;;;;;;18.85;10.80;;;;;;;8.99;62.59;100571.69;6041432;23;20031;-85
2021/11/11 02:20:37;;;;;;;20.95;11.30;;;;;;;8.98;62.90;100563.88;6043650;23;20031;-86
2021/11/11 02:23:10;;;;;;;21.13;11.75;;;;;;;8.99;62.75;100568.19;6045292;23;20035;-84
2021/11/11 02:25:38;;;;;;;21.52;11.60;;;;;;;8.99;62.77;100560.31;6045424;23;20466;-84
2021/11/11 02:28:10;;;;;;;22.38;11.43;;;;;;;8.96;63.01;100561.28;6045160;23;20023;-84
2021/11/11 02:30:39;;;;;;;22.80;11.90;;;;;;;8.97;62.78;100557.75;6068981;23;20049;-85
2021/11/11 02:33:16;;;;;;;30.55;12.27;;;;;;;8.93;63.12;100553.53;6044993;23;20095;-83
2021/11/11 02:35:43;;;;;;;21.60;11.95;;;;;;;8.97;62.78;100555.13;6070647;23;20019;-84
2021/11/11 02:38:11;;;;;;;18.15;10.93;;;;;;;8.97;62.88;100551.66;6044957;23;20022;-84
2021/11/11 02:40:39;;;;;;;22.20;12.13;;;;;;;8.95;62.60;100549.09;6045366;23;20522;-84
2021/11/11 02:43:08;;;;;;;20.83;11.70;;;;;;;8.95;62.95;100564.84;6044889;23;20019;-84
2021/11/11 02:45:37;;;;;;;27.70;12.98;;;;;;;8.96;62.86;100563.91;6045388;23;20486;-84
2021/11/11 02:48:06;;;;;;;22.98;11.75;;;;;;;8.96;62.77;100561.28;6070922;23;20027;-85
2021/11/11 02:50:35;;;;;;;24.95;12.85;;;;;;;8.97;63.05;100560.38;6044997;23;20031;-84
2021/11/11 02:53:03;;;;;;;24.23;12.00;;;;;;;8.98;62.74;100559.44;6045588;23;20030;-84
2021/11/11 02:55:30;;;;;;;19.92;11.45;;;;;;;8.99;62.69;100558.56;6071145;23;20029;-85
2021/11/11 02:57:59;;;;;;;22.27;12.88;;;;;;;8.97;63.05;100560.38;6045460;23;20027;-84
2021/11/11 03:00:30;;;;;;;22.48;12.55;;;;;;;8.95;62.60;100559.59;6070277;23;20027;-84
2021/11/11 03:02:57;;;;;;;19.98;12.07;;;;;;;8.95;62.63;100556.09;6045385;23;20031;-84
2021/11/11 03:05:28;;;;;;;23.40;11.93;;;;;;;8.91;62.88;100560.59;6045599;23;20046;-85
2021/11/11 03:07:54;;;;;;;19.20;11.45;;;;;;;8.91;62.81;100551.88;6043960;23;20366;-83
2021/11/11 03:10:24;;;;;;;22.92;11.60;;;;;;;8.90;62.75;100550.16;6042922;23;20031;-86
2021/11/11 03:12:52;;;;;;;25.55;12.23;;;;;;;8.88;63.08;100558.09;6069033;23;20030;-85
2021/11/11 03:15:20;;;;;;;20.27;11.43;;;;;;;8.87;63.09;100548.50;6043431;23;20023;-85
2021/11/11 03:17:48;;;;;;;23.48;12.30;;;;;;;8.84;62.91;100552.09;6068770;23;20450;-85
2021/11/11 03:20:15;;;;;;;24.70;11.57;;;;;;;8.82;62.94;100553.06;6042999;23;20034;-87
2021/11/11 03:22:43;;;;;;;29.30;12.90;;;;;;;8.80;62.75;100552.25;6042675;23;20029;-86
2021/11/11 03:25:18;;;;;;;21.85;12.30;;;;;;;8.73;63.38;100549.00;6042959;23;20027;-84
2021/11/11 03:27:45;;;;;;;21.88;12.40;;;;;;;8.73;63.09;100543.75;6043268;23;20063;-85
2021/11/11 03:30:15;;;;;;;20.73;11.52;;;;;;;8.71;63.47;100550.84;6042376;23;20034;-87
2021/11/11 03:32:42;;;;;;;25.25;13.07;;;;;;;8.69;63.12;100545.66;6042611;23;20038;-86
2021/11/11 03:35:10;;;;;;;21.08;12.38;;;;;;;8.69;63.22;100555.28;6067673;23;20027;-87
2021/11/11 03:37:40;;;;;;;22.98;12.50;;;;;;;8.67;63.23;100560.59;6068227;23;20110;-87
2021/11/11 03:40:11;;;;;;;23.13;11.25;;;;;;;8.62;63.32;100546.78;6041895;23;20082;-87
2021/11/11 03:42:38;;;;;;;21.33;12.77;;;;;;;8.62;63.24;100552.03;6042308;23;20023;-86
2021/11/11 03:45:07;;;;;;;19.77;11.73;;;;;;;8.61;63.43;100552.94;6066651;23;20031;-88
2021/11/11 03:47:34;;;;;;;19.17;11.48;;;;;;;8.60;63.59;100553.84;6042793;23;20031;-87
2021/11/11 03:50:01;;;;;;;23.77;12.48;;;;;;;8.60;63.44;100564.34;6067752;23;20026;-86
2021/11/11 03:52:29;;;;;;;17.92;10.90;;;;;;;8.60;63.94;100565.19;6067516;23;20046;-87
2021/11/11 03:54:55;;;;;;;21.08;11.73;;;;;;;8.63;63.60;100566.00;6042824;23;20506;-87
2021/11/11 03:57:22;;;;;;;25.13;12.40;;;;;;;8.64;63.72;100565.97;6041487;23;20074;-86
2021/11/11 03:59:49;;;;;;;22.20;12.77;;;;;;;8.67;63.59;100570.25;6041153;23;20027;-87
2021/11/11 04:02:16;;;;;;;23.35;12.40;;;;;;;8.67;63.72;100568.47;6042116;23;20355;-87
2021/11/11 04:04:42;;;;;;;22.17;11.25;;;;;;;8.68;63.76;100572.78;6042534;23;20027;-86
2021/11/11 04:07:09;;;;;;;19.02;12.10;;;;;;;8.70;63.48;100567.47;6042169;23;20645;-88
2021/11/11 04:09:36;;;;;;;21.52;11.95;;;;;;;8.71;63.64;100571.84;6067645;23;20045;-88
2021/11/11 04:12:04;;;;;;;19.63;10.77;;;;;;;8.71;63.65;100564.81;6042648;23;20090;-85
2021/11/11 04:14:32;;;;;;;19.85;12.40;;;;;;;8.73;63.52;100570.88;6042477;23;20046;-88
2021/11/11 04:16:58;;;;;;;22.92;12.05;;;;;;;8.76;63.47;100567.28;6042005;23;20078;-86
2021/11/11 04:19:26;;;;;;;23.00;11.85;;;;;;;8.77;63.26;100573.38;6041846;23;20027;-88
2021/11/11 04:21:53;;;;;;;23.90;12.02;;;;;;;8.79;63.40;100571.56;6066185;23;20046;-88
2021/11/11 04:24:20;;;;;;;21.30;13.55;;;;;;;8.81;63.32;100564.47;6042124;23;20023;-88
2021/11/11 04:26:53;;;;;;;25.40;12.30;;;;;;;8.82;63.50;100568.84;6067550;23;20019;-88
2021/11/11 04:29:26;;;;;;;22.55;11.82;;;;;;;8.82;63.05;100566.22;6042270;23;20027;-86
2021/11/11 04:31:57;;;;;;;22.20;12.55;;;;;;;8.83;63.26;100565.28;6067982;23;20026;-87
2021/11/11 04:34:25;;;;;;;25.45;12.45;;;;;;;8.84;62.98;100561.75;6042207;23;20462;-86
2021/11/11 04:42:34;;;;;;;21.05;11.95;;;;;;;8.86;62.76;100557.31;6067044;23;20094;-87
2021/11/11 05:01:34;;;;;;;22.95;11.68;;;;;;;8.71;62.63;100551.69;6067288;23;20030;-87
2021/11/11 05:04:01;;;;;;;26.73;13.60;;;;;;;8.66;62.77;100551.00;6042310;23;20388;-86
2021/11/11 05:06:27;;;;;;;19.77;11.73;;;;;;;8.62;63.24;100546.78;6067320;23;20026;-86
2021/11/11 05:08:56;;;;;;;27.27;13.88;;;;;;;8.58;62.97;100547.78;6042044;23;20023;-88
2021/11/11 05:11:22;;;;;;;24.45;13.68;;;;;;;8.54;63.12;100546.19;6041791;23;20471;-88
2021/11/11 05:13:49;;;;;;;22.45;12.23;;;;;;;8.50;63.11;100542.78;6042202;23;20518;-85
2021/11/11 05:16:16;;;;;;;25.85;13.43;;;;;;;8.43;63.38;100542.16;6042137;23;20019;-86
2021/11/11 05:18:43;;;;;;;22.60;12.52;;;;;;;8.38;63.39;100546.72;6041760;23;20022;-88
2021/11/11 05:21:09;;;;;;;18.05;11.82;;;;;;;8.34;63.44;100542.50;6041512;23;20403;-87
2021/11/11 05:23:36;;;;;;;24.63;13.60;;;;;;;8.29;63.18;100545.25;6041871;23;20344;-86
2021/11/11 05:26:04;;;;;;;27.65;13.38;;;;;;;8.26;63.53;100544.53;6041436;23;20014;-87
2021/11/11 05:28:31;;;;;;;21.65;11.60;;;;;;;8.23;63.70;100553.34;6067218;23;20022;-87
2021/11/11 05:30:58;;;;;;;23.60;13.15;;;;;;;8.18;63.59;100555.25;6042012;23;20023;-86
2021/11/11 05:33:25;;;;;;;21.10;12.15;;;;;;;8.16;63.51;100555.34;6042349;23;20023;-86
2021/11/11 05:35:58;;;;;;;24.58;11.80;;;;;;;8.11;64.24;100557.22;6041789;23;20367;-86
2021/11/11 05:38:25;;;;;;;18.92;11.52;;;;;;;8.11;63.89;100546.75;6040963;23;20022;-86
2021/11/11 05:40:52;;;;;;;19.90;12.38;;;;;;;8.10;63.68;100552.91;6041319;23;20027;-85
2021/11/11 05:43:20;;;;;;;21.10;12.70;;;;;;;8.09;63.85;100561.69;6042233;23;20025;-85
2021/11/11 05:45:47;;;;;;;20.05;12.18;;;;;;;8.07;64.11;100560.84;6041688;23;20022;-85
2021/11/11 05:48:14;;;;;;;19.65;12.55;;;;;;;8.06;63.95;100569.63;6040562;23;20022;-86
2021/11/11 05:50:41;;;;;;;22.13;12.02;;;;;;;8.05;64.06;100571.44;6066144;23;20027;-86
2021/11/11 05:53:08;;;;;;;21.55;12.18;;;;;;;8.04;64.23;100574.94;6041364;23;20034;-85
2021/11/11 05:55:34;;;;;;;23.35;12.32;;;;;;;8.05;64.04;100578.44;6068056;23;20023;-85
2021/11/11 05:58:02;;;;;;;25.85;12.57;;;;;;;8.03;64.08;100586.34;6067691;23;20074;-85
2021/11/11 06:00:29;;;;;;;28.40;12.18;;;;;;;8.02;64.32;100584.63;6042569;23;20031;-86
2021/11/11 06:02:56;;;;;;;21.23;12.57;;;;;;;8.01;64.16;100592.53;6043428;23;20082;-85
2021/11/11 06:05:26;;;;;;;25.48;13.50;;;;;;;7.98;64.57;100590.00;6068117;23;20538;-86
2021/11/11 06:07:53;;;;;;;21.05;13.27;;;;;;;7.95;64.45;100588.34;6042641;23;20042;-86
2021/11/11 06:10:19;;;;;;;20.25;13.27;;;;;;;7.92;64.23;100589.31;6042829;23;20027;-86
2021/11/11 06:12:46;;;;;;;21.52;13.27;;;;;;;7.90;64.49;100595.50;6068529;23;20023;-86
2021/11/11 06:15:13;;;;;;;22.13;13.32;;;;;;;7.89;64.63;100594.66;6042096;23;20031;-86
2021/11/11 06:17:41;;;;;;;23.42;14.18;;;;;;;7.88;64.84;100600.81;6067535;23;20022;-84
2021/11/11 06:20:27;;;;;;;23.80;13.02;;;;;;;7.87;64.74;100599.09;6042624;23;20054;-85
2021/11/11 06:22:54;;;;;;;25.02;13.25;;;;;;;7.86;64.66;100604.38;6042768;23;20811;-85
2021/11/11 06:25:21;;;;;;;20.02;12.77;;;;;;;7.85;64.60;100610.53;6042259;23;20489;-84
2021/11/11 06:27:56;;;;;;;21.45;12.75;;;;;;;7.80;65.63;100610.66;6042695;23;20026;-85
2021/11/11 06:30:23;;;;;;;22.92;13.77;;;;;;;7.80;64.73;100608.91;6041973;23;20305;-85
2021/11/11 06:32:49;;;;;;;24.55;13.68;;;;;;;7.82;64.81;100619.34;6065706;23;20026;-84
2021/11/11 06:35:26;;;;;;;24.58;12.85;;;;;;;7.84;65.18;100616.69;6044208;23;20352;-84
2021/11/11 06:37:52;;;;;;;26.75;14.13;;;;;;;7.86;64.82;100620.09;6041491;23;20047;-85
2021/11/11 06:40:19;;;;;;;23.88;14.00;;;;;;;7.86;65.04;100618.34;6066877;23;20044;-85
2021/11/11 06:42:46;;;;;;;25.10;13.93;;;;;;;7.86;65.02;100615.75;6041999;23;20027;-83
2021/11/11 06:45:14;;;;;;;22.92;13.10;;;;;;;7.86;64.96;100623.59;6066102;23;20027;-83
2021/11/11 06:47:41;;;;;;;26.38;14.30;;;;;;;7.84;64.75;100614.91;6066351;23;20344;-84
2021/11/11 06:50:09;;;;;;;21.80;13.95;;;;;;;7.84;65.16;100620.16;6041677;23;20027;-84
2021/11/11 06:52:36;;;;;;;23.35;14.77;;;;;;;7.80;64.97;100619.41;6041820;23;20572;-84
2021/11/11 06:55:05;;;;;;;26.05;14.00;;;;;;;7.80;65.26;100619.41;6067036;23;20034;-84
2021/11/11 06:57:32;;;;;;;24.50;14.60;;;;;;;7.78;65.18;100617.75;6041831;23;20292;-85
2021/11/11 06:59:58;;;;;;;27.65;14.70;;;;;;;7.78;65.21;100623.81;6068169;23;20082;-85
2021/11/11 07:02:26;;;;;;;29.83;15.18;;;;;;;7.77;65.20;100621.25;6067617;23;20038;-84
2021/11/11 07:04:53;;;;;;;24.08;13.38;;;;;;;7.78;65.50;100626.44;6042047;23;20027;-84
2021/11/11 07:07:19;;;;;;;21.85;13.40;;;;;;;7.79;65.35;100628.19;6041916;23;20022;-84
2021/11/11 07:09:46;;;;;;;24.08;13.68;;;;;;;7.82;65.51;100628.06;6041556;23;20455;-84
2021/11/11 07:12:13;;;;;;;23.35;13.23;;;;;;;7.87;65.40;100632.31;6042022;23;20375;-85
2021/11/11 07:14:42;;;;;;;25.02;14.23;;;;;;;7.90;65.36;100632.22;6040002;23;20074;-84
2021/11/11 07:17:09;;;;;;;24.08;12.70;;;;;;;7.93;65.58;100629.50;6065688;23;20027;-85
2021/11/11 07:19:36;;;;;;;22.95;13.32;;;;;;;7.95;65.05;100631.16;6042191;23;20029;-85
2021/11/11 07:22:05;;;;;;;22.42;12.77;;;;;;;7.95;65.20;100630.28;6042249;23;20082;-86
2021/11/11 07:24:32;;;;;;;22.85;13.60;;;;;;;7.97;65.15;100627.63;6041888;23;20026;-85
2021/11/11 07:27:00;;;;;;;23.50;13.30;;;;;;;7.95;65.26;100628.53;6042313;23;20037;-85
2021/11/11 07:29:27;;;;;;;25.08;13.63;;;;;;;7.95;65.18;100631.16;6065729;23;20358;-85
2021/11/11 07:31:54;;;;;;;23.83;13.40;;;;;;;7.96;65.11;100629.38;6041792;23;20034;-84
2021/11/11 07:34:22;;;;;;;24.90;14.23;;;;;;;7.95;65.49;100631.16;6067507;23;20022;-83
2021/11/11 07:36:49;;;;;;;22.98;14.07;;;;;;;7.97;65.32;100630.25;6067555;23;20082;-85
2021/11/11 07:39:16;;;;;;;22.95;13.43;;;;;;;7.98;65.38;100629.34;6066906;23;20030;-84
2021/11/11 07:41:44;;;;;;;24.70;13.40;;;;;;;7.99;65.64;100628.47;6042006;23;20194;-85
2021/11/11 07:44:11;;;;;;;22.88;13.82;;;;;;;8.01;65.22;100624.88;6066753;23;20033;-84
2021/11/11 07:46:40;;;;;;;30.88;14.48;;;;;;;8.03;65.77;100616.94;6065723;23;20462;-85
2021/11/11 07:49:08;;;;;;;23.27;14.93;;;;;;;8.04;65.63;100616.88;6041706;23;20455;-85
2021/11/11 07:51:35;;;;;;;26.75;14.90;;;;;;;8.05;65.51;100610.75;6042066;23;20030;-85
2021/11/11 07:54:04;;;;;;;28.10;14.80;;;;;;;8.06;65.77;100615.09;6067532;23;20094;-85
2021/11/11 07:56:30;;;;;;;28.70;15.30;;;;;;;8.09;65.33;100611.50;6067145;23;20102;-85
2021/11/11 07:58:57;;;;;;;26.80;15.23;;;;;;;8.11;65.41;100611.47;6066664;23;20307;-84
2021/11/11 08:01:24;;;;;;;24.60;14.93;;;;;;;8.14;65.26;100612.22;6041536;23;20027;-85
2021/11/11 08:03:52;;;;;;;26.77;14.63;;;;;;;8.17;65.37;100611.25;6041651;23;20087;-85
2021/11/11 08:06:21;;;;;;;27.98;15.23;;;;;;;8.21;65.44;100616.34;6042294;23;20031;-84
2021/11/11 08:08:48;;;;;;;23.85;14.43;;;;;;;8.26;65.23;100612.72;6041590;23;20027;-85
2021/11/11 08:11:15;;;;;;;26.98;14.75;;;;;;;8.29;65.18;100612.59;6066721;23;20058;-85
2021/11/11 08:13:42;;;;;;;28.60;15.05;;;;;;;8.31;65.22;100606.41;6066952;23;20026;-85
2021/11/11 08:16:08;;;;;;;30.80;14.93;;;;;;;8.36;65.43;100614.09;6041104;23;20026;-84
2021/11/11 08:18:35;;;;;;;25.30;14.18;;;;;;;8.40;65.17;100606.97;6066926;23;20027;-83
2021/11/11 08:21:02;;;;;;;29.48;15.60;;;;;;;8.44;65.18;100606.84;6067096;23;20027;-81
2021/11/11 08:23:29;;;;;;;32.80;15.52;;;;;;;8.48;65.40;100605.81;6066833;23;20029;-82
2021/11/11 08:26:02;;;;;;;23.85;14.48;;;;;;;8.54;64.98;100599.53;6041283;23;20033;-85
2021/11/11 08:28:29;;;;;;;27.30;16.20;;;;;;;8.58;64.89;100608.16;6041375;23;20022;-82
2021/11/11 08:30:56;;;;;;;25.40;14.52;;;;;;;8.61;65.25;100610.69;6066830;23;20026;-85
2021/11/11 08:33:22;;;;;;;29.95;14.82;;;;;;;8.67;65.30;100615.69;6066662;23;20069;-85
2021/11/11 08:35:51;;;;;;;23.73;14.10;;;;;;;8.71;64.82;100611.22;6066689;23;20453;-85
2021/11/11 08:38:19;;;;;;;23.10;14.82;;;;;;;8.77;65.08;100610.13;6040904;23;20033;-84
2021/11/11 08:40:46;;;;;;;23.73;14.93;;;;;;;8.80;65.11;100610.00;6041557;23;20029;-84
2021/11/11 08:43:13;;;;;;;30.38;16.70;;;;;;;8.86;64.83;100612.44;6041694;23;20117;-85
2021/11/11 08:45:40;;;;;;;27.70;15.95;;;;;;;8.92;64.64;100624.47;6066568;23;20037;-85
2021/11/11 08:48:07;;;;;;;34.80;16.30;;;;;;;8.97;64.97;100628.66;6041042;23;20459;-82
2021/11/11 08:50:35;;;;;;;28.05;15.10;;;;;;;9.04;65.02;100625.81;6041473;23;20094;-84
2021/11/11 08:53:05;;;;;;;26.05;15.15;;;;;;;9.09;64.63;100627.34;6066543;23;20026;-84
2021/11/11 08:55:33;;;;;;;28.60;14.77;;;;;;;9.17;64.71;100631.47;6066723;23;20023;-84
2021/11/11 08:58:03;;;;;;;26.58;14.40;;;;;;;9.22;64.40;100633.00;6041152;23;20022;-85
2021/11/11 09:00:35;;;;;;;35.38;16.50;;;;;;;9.28;64.15;100641.56;6064957;23;20027;-85
2021/11/11 09:03:04;;;;;;;30.75;16.20;;;;;;;9.33;64.17;100639.63;6041044;23;20038;-85
2021/11/11 09:05:34;;;;;;;27.42;15.93;;;;;;;9.35;63.83;100643.06;6041391;23;20033;-85
2021/11/11 09:08:03;;;;;;;28.10;16.30;;;;;;;9.36;63.82;100642.13;6041139;23;20360;-85
2021/11/11 09:10:34;;;;;;;28.30;16.00;;;;;;;9.38;64.01;100643.78;6041359;23;20388;-84
2021/11/11 09:13:14;;;;;;;28.10;15.27;;;;;;;9.39;64.05;100640.25;6066468;23;20035;-85
2021/11/11 09:15:40;;;;;;;28.02;16.35;;;;;;;9.41;63.81;100644.59;6066793;23;20027;-85
2021/11/11 09:18:08;;;;;;;25.17;16.10;;;;;;;9.45;63.92;100640.91;6066131;23;20023;-84
2021/11/11 09:20:55;;;;;;;28.50;16.83;;;;;;;9.49;63.76;100643.38;6066317;23;20366;-85
2021/11/11 09:23:22;;;;;;;31.50;17.15;;;;;;;9.52;63.87;100635.38;6041071;23;20022;-84
2021/11/11 09:25:48;;;;;;;31.10;16.70;;;;;;;9.56;63.56;100630.00;6066410;23;20023;-85
2021/11/11 09:28:15;;;;;;;32.10;17.13;;;;;;;9.59;63.79;100638.63;6066394;23;20027;-84
2021/11/11 09:30:42;;;;;;;34.35;18.08;;;;;;;9.61;63.61;100633.31;6067873;23;20030;-85
2021/11/11 09:33:09;;;;;;;27.48;16.70;;;;;;;9.63;63.18;100634.09;6068080;23;20027;-85
2021/11/11 09:35:37;;;;;;;30.23;17.00;;;;;;;9.64;63.17;100635.81;6043516;23;20403;-85
2021/11/11 09:38:04;;;;;;;29.95;16.55;;;;;;;9.65;63.41;100637.53;6067744;23;20015;-81
2021/11/11 09:40:32;;;;;;;27.48;16.67;;;;;;;9.65;62.92;100641.00;6042949;23;20498;-84
2021/11/11 09:42:59;;;;;;;26.38;15.85;;;;;;;9.68;63.12;100639.19;6043033;23;20027;-84
2021/11/11 09:45:29;;;;;;;30.63;17.48;;;;;;;9.67;63.25;100643.59;6043333;23;20078;-85
2021/11/11 09:47:56;;;;;;;32.58;17.35;;;;;;;9.68;63.20;100637.41;6043317;23;20034;-84
2021/11/11 09:50:26;;;;;;;31.17;16.48;;;;;;;9.67;63.08;100633.06;6043091;23;20030;-85
2021/11/11 09:52:53;;;;;;;32.58;17.20;;;;;;;9.71;63.38;100647.81;6042984;23;20026;-84
2021/11/11 10:00:55;;;;;;;27.08;17.20;;;;;;;9.83;63.04;100643.00;6068794;23;20034;-87
2021/11/11 10:03:22;;;;;;;30.35;16.33;;;;;;;9.85;63.37;100646.41;6043094;23;20027;-86
2021/11/11 10:05:49;;;;;;;28.88;17.63;;;;;;;9.89;63.02;100642.75;6068258;23;20031;-87
2021/11/11 10:08:48;;;;;;;27.10;17.65;;;;;;;9.88;62.94;100643.66;6042322;23;20454;-85
2021/11/11 10:11:36;;;;;;;31.65;17.98;;;;;;;9.90;62.10;100642.69;6068326;23;20027;-87
2021/11/11 10:14:06;;;;;;;28.67;16.90;;;;;;;9.96;63.15;100644.22;6043193;23;20465;-87
2021/11/11 10:16:36;;;;;;;29.67;17.02;;;;;;;9.97;62.68;100642.41;6042610;23;20090;-85
2021/11/11 10:19:04;;;;;;;37.38;18.00;;;;;;;9.98;62.80;100645.00;6042686;23;20396;-86
2021/11/11 10:21:58;;;;;;;32.67;16.73;;;;;;;10.00;62.79;100637.91;6067769;23;20022;-88
2021/11/11 10:24:30;;;;;;;29.13;16.13;;;;;;;10.06;62.84;100646.47;6042457;23;20030;-88
2021/11/11 10:27:08;;;;;;;26.70;16.67;;;;;;;10.10;62.70;100642.81;6042456;23;20034;-87
2021/11/11 10:29:37;;;;;;;27.42;15.75;;;;;;;10.15;62.79;100635.56;6043002;23;20494;-85
2021/11/11 10:32:12;;;;;;;26.23;17.58;;;;;;;10.17;62.56;100639.84;6043336;23;20027;-86
2021/11/11 10:35:10;;;;;;;28.38;16.88;;;;;;;10.22;62.30;100637.03;6042568;23;20030;-87
2021/11/11 10:37:47;;;;;;;23.15;15.45;;;;;;;10.30;62.66;100647.22;6067486;23;20027;-87
2021/11/11 10:40:19;;;;;;;25.75;15.32;;;;;;;10.34;62.54;100640.94;6042360;23;20034;-87
2021/11/11 10:42:48;;;;;;;26.80;14.68;;;;;;;10.43;62.80;100644.94;6068682;23;20050;-87
2021/11/11 10:45:17;;;;;;;23.10;15.32;;;;;;;10.49;62.54;100651.75;6043556;23;20038;-85
2021/11/11 10:47:49;;;;;;;25.10;14.00;;;;;;;10.54;62.33;100642.75;6042705;23;20022;-87
2021/11/11 10:50:21;;;;;;;25.67;15.30;;;;;;;10.60;62.22;100641.63;6041846;23;20030;-86
2021/11/11 10:52:50;;;;;;;26.67;15.40;;;;;;;10.68;62.57;100646.56;6042696;23;20082;-86
2021/11/11 10:55:39;;;;;;;21.25;13.77;;;;;;;10.75;62.00;100649.78;6042209;23;20459;-87
2021/11/11 10:58:14;;;;;;;23.90;14.43;;;;;;;10.82;61.75;100641.56;6041650;23;20078;-83
2021/11/11 11:00:58;;;;;;;24.80;15.02;;;;;;;10.89;61.47;100636.03;6041933;23;20031;-87
2021/11/11 11:03:31;;;;;;;24.00;14.98;;;;;;;10.96;61.36;100642.72;6067789;23;20022;-87
2021/11/11 11:06:06;;;;;;;27.67;14.88;;;;;;;11.00;61.62;100631.13;6042428;23;20342;-87
2021/11/11 11:08:39;;;;;;;23.48;13.90;;;;;;;11.07;61.13;100637.00;6067279;23;20019;-86
2021/11/11 11:11:17;;;;;;;28.10;14.63;;;;;;;11.14;61.48;100634.94;6066024;23;20038;-87
2021/11/11 11:13:48;;;;;;;30.27;15.88;;;;;;;11.21;61.56;100641.63;6067705;23;20027;-87
2021/11/11 11:16:19;;;;;;;25.67;15.05;;;;;;;11.28;61.58;100650.97;6067445;23;20033;-88
2021/11/11 11:18:55;;;;;;;23.30;14.40;;;;;;;11.34;60.74;100636.66;6042342;23;20358;-86
2021/11/11 11:21:25;;;;;;;22.85;14.05;;;;;;;11.41;60.57;100639.84;6042594;23;20033;-88
2021/11/11 11:24:05;;;;;;;23.27;14.32;;;;;;;11.41;60.40;100642.50;6042308;23;20027;-87
2021/11/11 11:26:44;;;;;;;22.80;14.02;;;;;;;11.41;59.95;100640.72;6042452;23;20050;-86
2021/11/11 11:29:19;;;;;;;24.00;13.98;;;;;;;11.41;59.98;100643.34;6041958;23;20019;-84
2021/11/11 11:32:03;;;;;;;24.10;13.32;;;;;;;11.39;59.75;100641.69;6041572;23;20027;-85
2021/11/11 11:34:36;;;;;;;23.00;14.05;;;;;;;11.38;60.06;100642.63;6067582;23;20039;-85
2021/11/11 11:37:07;;;;;;;22.02;13.82;;;;;;;11.36;60.27;100636.59;6065081;23;20035;-85
2021/11/11 11:39:38;;;;;;;23.67;14.60;;;;;;;11.36;60.42;100639.22;6042075;23;20031;-85
2021/11/11 11:42:09;;;;;;;22.00;14.07;;;;;;;11.36;60.71;100634.78;6066509;23;20100;-85
2021/11/11 11:44:41;;;;;;;23.60;14.80;;;;;;;11.37;60.27;100630.38;6042042;23;20033;-86
2021/11/11 11:47:21;;;;;;;24.60;14.25;;;;;;;11.38;60.38;100622.41;6041737;23;20031;-86
2021/11/11 11:49:57;;;;;;;23.13;13.88;;;;;;;11.39;59.85;100623.25;6042015;23;20343;-85
2021/11/11 11:52:28;;;;;;;24.48;13.85;;;;;;;11.41;60.26;100624.03;6064621;23;20034;-86